Seabulk Arctic — WCY7054 — position and weather

sailwx.info

Track history (hours):
 
Tides and Currents Weather Stations Pressure Air Temp Water Temp Dewpoint Dewpoint Depression Visibility Wind Speed Wind Dir Waves Ship Positions

Seabulk Arctic

Owner: LIGHTSHIP TANKERS IV LLC, FORT LAUDERDALE, FL. More information available from US FCC via Universal Licensing System and Coast Guard Vessel Documentation Center.

Last reported at 2016-Jul-27 11:00 UTC. Time now 2016-Jul-27 19:18 UTC.
Position N 27°12' W 094°18'.

Type: Tanker. MMSI: 366826000.

Wind from 180 at 13 knots

Waves 1.0 meters (3 feet), 4 second period

Barometer 1014.5 mb
Visibility: greater than 10.8 NM

Date/timePositionNaut miles runAvg speedWind from/ knotsBaromVisibWave heightAir tempDewpointWater temp
2016-Jul-27 11:00N 27°12' W 094°18'16713.9 180 / 131014.510.8 1.0
2016-Jul-26 23:00N 26°54' W 091°12'16214.7 170 / 201015.0 5.4 2.024.4
2016-Jul-26 12:00N 26°36' W 088°12'17513.5 190 / 191015.510.8 1.0
2016-Jul-25 23:00N 25°42' W 085°06'16313.6 010 / 41015.010.8 0.527.8
2016-Jul-25 11:00N 24°12' W 082°36'13911.6 060 / 91016.010.8 0.5
2016-Jul-24 23:00N 25°00' W 080°12'4713.6 060 / 91016.0 5.4 1.026.7
2016-Jul-24 19:33N 25°46' W 079°59'1010.4
2016-Jul-24 18:33N 25°56' W 079°59'1010.0
2016-Jul-24 17:33N 26°06' W 079°58'10 9.8
2016-Jul-24 16:33N 26°15' W 079°56'10 9.8
2016-Jul-24 15:33N 26°25' W 079°55'11 9.9
2016-Jul-24 14:28N 26°36' W 079°55'9 9.9
2016-Jul-24 13:33N 26°45' W 079°54'1010.0
2016-Jul-24 12:33N 26°55' W 079°54'10 9.9
2016-Jul-24 11:33N 27°05' W 079°54'5 8.5
2016-Jul-24 11:00N 27°00' W 079°54'14412.0 230 / 91016.210.8 0.5
2016-Jul-23 23:00N 29°06' W 078°36'19015.8 130 / 21015.510.8 0.5
2016-Jul-23 11:00N 31°42' W 076°30'16413.6 120 / 21016.010.8 32.2
2016-Jul-22 23:00N 34°12' W 075°12'3219.4 060 / 31016.027.0 0.526.1
2016-Jul-22 21:22N 34°43' W 075°08'12612.1
2016-Jul-22 11:00N 36°48' W 074°48'8217.5 230 / 111019.010.8 1.027.2
2016-Jul-22 06:18N 38°10' W 074°42'2413.8
2016-Jul-22 04:33N 38°33' W 074°50'1414.3
2016-Jul-22 03:33N 38°45' W 075°01'1212.0
2016-Jul-22 02:33N 38°56' W 075°06'1312.7
2016-Jul-22 01:33N 39°08' W 075°13'1212.1
2016-Jul-22 00:33N 39°18' W 075°22'1313.2
2016-Jul-21 23:33N 39°27' W 075°34'1313.4
2016-Jul-21 22:33N 39°41' W 075°31'9 9.0
2016-Jul-21 21:33N 39°48' W 075°25'0 0.1
2016-Jul-21 20:33N 39°48' W 075°25'0 0.1
2016-Jul-21 19:33N 39°48' W 075°24'0 0.0
2016-Jul-21 18:30N 39°48' W 075°24'0 0.0
2016-Jul-21 17:33N 39°48' W 075°24'0 0.0
2016-Jul-21 16:33N 39°48' W 075°24'0 0.0
2016-Jul-21 15:33N 39°48' W 075°24'0 0.1
2016-Jul-21 14:33N 39°48' W 075°25'0 0.4
2016-Jul-21 13:33N 39°49' W 075°24'0 0.1
2016-Jul-21 12:32N 39°49' W 075°24'0 0.0
2016-Jul-21 11:32N 39°49' W 075°24'0 0.0
2016-Jul-21 10:32N 39°49' W 075°24'0 0.0
2016-Jul-21 09:28N 39°49' W 075°24'0 0.0
2016-Jul-21 08:31N 39°49' W 075°24'0 0.0
2016-Jul-21 07:31N 39°49' W 075°24'0 0.0
2016-Jul-21 06:31N 39°49' W 075°24'0 0.0
2016-Jul-21 05:33N 39°49' W 075°24'0 0.0
2016-Jul-21 04:33N 39°49' W 075°24'0 0.0
2016-Jul-21 03:33N 39°49' W 075°24'0 0.0
2016-Jul-21 02:31N 39°49' W 075°24'0 0.0
2016-Jul-21 01:31N 39°49' W 075°24'0 0.0
2016-Jul-21 00:31N 39°49' W 075°24'0 0.0
2016-Jul-20 23:31N 39°49' W 075°24'0 0.0
2016-Jul-20 22:31N 39°49' W 075°24'0 0.0
2016-Jul-20 21:31N 39°49' W 075°24'0 0.0
2016-Jul-20 20:31N 39°49' W 075°24'0 0.0
2016-Jul-20 19:31N 39°49' W 075°24'0 0.0
2016-Jul-20 18:31N 39°49' W 075°24'0 0.0
2016-Jul-20 17:31N 39°49' W 075°24'0 0.3
2016-Jul-20 16:34N 39°49' W 075°24'3 2.7
2016-Jul-20 15:33N 39°47' W 075°27'1010.2
2016-Jul-20 14:34N 39°38' W 075°34'1211.9
2016-Jul-20 13:33N 39°27' W 075°33'1313.0
2016-Jul-20 12:34N 39°17' W 075°22'1312.6
2016-Jul-20 11:33N 39°06' W 075°12'1312.5
2016-Jul-20 10:33N 38°55' W 075°06'1111.1
2016-Jul-20 09:34N 38°45' W 074°59'8 8.0
2016-Jul-20 08:33N 38°40' W 074°52'17 7.9
2016-Jul-20 06:27N 38°27' W 074°38'11 5.6
2016-Jul-20 04:33N 38°34' W 074°27'9 4.5
2016-Jul-20 02:29N 38°42' W 074°21'1 1.5
2016-Jul-20 01:34N 38°42' W 074°19'43011.1
2016-Jul-18 11:00N 32°12' W 078°00'18215.1 350 / 91022.210.8 0.5
2016-Jul-17 23:00N 29°30' W 079°36'14817.5 070 / 91020.810.8 0.5
2016-Jul-17 14:32N 27°02' W 079°43'2417.3
2016-Jul-17 13:09N 26°38' W 079°45'1017.3
2016-Jul-17 12:33N 26°28' W 079°46'1717.4
2016-Jul-17 11:33N 26°10' W 079°47'5 8.9
2016-Jul-17 11:00N 26°12' W 079°42'   070 / 161017.910.8 1.527.2
Track history (hours):
 
Tides and Currents Weather Stations Pressure Air Temp Water Temp Dewpoint Dewpoint Depression Visibility Wind Speed Wind Dir Waves Ship Positions

Seabulk Arctic

Owner: LIGHTSHIP TANKERS IV LLC, FORT LAUDERDALE, FL. More information available from US FCC via Universal Licensing System and Coast Guard Vessel Documentation Center.

Last reported at 2016-Jul-27 11:00 UTC. Time now 2016-Jul-27 19:18 UTC.
Position N 27°12' W 094°18'.

Type: Tanker. MMSI: 366826000.

Wind from 180 at 13 knots

Waves 1.0 meters (3 feet), 4 second period

Barometer 1014.5 mb
Visibility: greater than 10.8 NM

Date/timePositionNaut miles runAvg speedWind from/ knotsBaromVisibWave heightAir tempDewpointWater temp
2016-Jul-27 11:00N 27°12' W 094°18'16713.9 180 / 131014.510.8 1.0
2016-Jul-26 23:00N 26°54' W 091°12'16214.7 170 / 201015.0 5.4 2.024.4
2016-Jul-26 12:00N 26°36' W 088°12'17513.5 190 / 191015.510.8 1.0
2016-Jul-25 23:00N 25°42' W 085°06'16313.6 010 / 41015.010.8 0.527.8
2016-Jul-25 11:00N 24°12' W 082°36'13911.6 060 / 91016.010.8 0.5
2016-Jul-24 23:00N 25°00' W 080°12'4713.6 060 / 91016.0 5.4 1.026.7
2016-Jul-24 19:33N 25°46' W 079°59'1010.4
2016-Jul-24 18:33N 25°56' W 079°59'1010.0
2016-Jul-24 17:33N 26°06' W 079°58'10 9.8
2016-Jul-24 16:33N 26°15' W 079°56'10 9.8
2016-Jul-24 15:33N 26°25' W 079°55'11 9.9
2016-Jul-24 14:28N 26°36' W 079°55'9 9.9
2016-Jul-24 13:33N 26°45' W 079°54'1010.0
2016-Jul-24 12:33N 26°55' W 079°54'10 9.9
2016-Jul-24 11:33N 27°05' W 079°54'5 8.5
2016-Jul-24 11:00N 27°00' W 079°54'14412.0 230 / 91016.210.8 0.5
2016-Jul-23 23:00N 29°06' W 078°36'19015.8 130 / 21015.510.8 0.5
2016-Jul-23 11:00N 31°42' W 076°30'16413.6 120 / 21016.010.8 32.2
2016-Jul-22 23:00N 34°12' W 075°12'3219.4 060 / 31016.027.0 0.526.1
2016-Jul-22 21:22N 34°43' W 075°08'12612.1
2016-Jul-22 11:00N 36°48' W 074°48'8217.5 230 / 111019.010.8 1.027.2
2016-Jul-22 06:18N 38°10' W 074°42'2413.8
2016-Jul-22 04:33N 38°33' W 074°50'1414.3
2016-Jul-22 03:33N 38°45' W 075°01'1212.0
2016-Jul-22 02:33N 38°56' W 075°06'1312.7
2016-Jul-22 01:33N 39°08' W 075°13'1212.1
2016-Jul-22 00:33N 39°18' W 075°22'1313.2
2016-Jul-21 23:33N 39°27' W 075°34'1313.4
2016-Jul-21 22:33N 39°41' W 075°31'9 9.0
2016-Jul-21 21:33N 39°48' W 075°25'0 0.1
2016-Jul-21 20:33N 39°48' W 075°25'0 0.1
2016-Jul-21 19:33N 39°48' W 075°24'0 0.0
2016-Jul-21 18:30N 39°48' W 075°24'0 0.0
2016-Jul-21 17:33N 39°48' W 075°24'0 0.0
2016-Jul-21 16:33N 39°48' W 075°24'0 0.0
2016-Jul-21 15:33N 39°48' W 075°24'0 0.1
2016-Jul-21 14:33N 39°48' W 075°25'0 0.4
2016-Jul-21 13:33N 39°49' W 075°24'0 0.1
2016-Jul-21 12:32N 39°49' W 075°24'0 0.0
2016-Jul-21 11:32N 39°49' W 075°24'0 0.0
2016-Jul-21 10:32N 39°49' W 075°24'0 0.0
2016-Jul-21 09:28N 39°49' W 075°24'0 0.0
2016-Jul-21 08:31N 39°49' W 075°24'0 0.0
2016-Jul-21 07:31N 39°49' W 075°24'0 0.0
2016-Jul-21 06:31N 39°49' W 075°24'0 0.0
2016-Jul-21 05:33N 39°49' W 075°24'0 0.0
2016-Jul-21 04:33N 39°49' W 075°24'0 0.0
2016-Jul-21 03:33N 39°49' W 075°24'0 0.0
2016-Jul-21 02:31N 39°49' W 075°24'0 0.0
2016-Jul-21 01:31N 39°49' W 075°24'0 0.0
2016-Jul-21 00:31N 39°49' W 075°24'0 0.0
2016-Jul-20 23:31N 39°49' W 075°24'0 0.0
2016-Jul-20 22:31N 39°49' W 075°24'0 0.0
2016-Jul-20 21:31N 39°49' W 075°24'0 0.0
2016-Jul-20 20:31N 39°49' W 075°24'0 0.0
2016-Jul-20 19:31N 39°49' W 075°24'0 0.0
2016-Jul-20 18:31N 39°49' W 075°24'0 0.0
2016-Jul-20 17:31N 39°49' W 075°24'0 0.3
2016-Jul-20 16:34N 39°49' W 075°24'3 2.7
2016-Jul-20 15:33N 39°47' W 075°27'1010.2
2016-Jul-20 14:34N 39°38' W 075°34'1211.9
2016-Jul-20 13:33N 39°27' W 075°33'1313.0
2016-Jul-20 12:34N 39°17' W 075°22'1312.6
2016-Jul-20 11:33N 39°06' W 075°12'1312.5
2016-Jul-20 10:33N 38°55' W 075°06'1111.1
2016-Jul-20 09:34N 38°45' W 074°59'8 8.0
2016-Jul-20 08:33N 38°40' W 074°52'17 7.9
2016-Jul-20 06:27N 38°27' W 074°38'11 5.6
2016-Jul-20 04:33N 38°34' W 074°27'9 4.5
2016-Jul-20 02:29N 38°42' W 074°21'1 1.5
2016-Jul-20 01:34N 38°42' W 074°19'43011.1
2016-Jul-18 11:00N 32°12' W 078°00'18215.1 350 / 91022.210.8 0.5
2016-Jul-17 23:00N 29°30' W 079°36'14817.5 070 / 91020.810.8 0.5
2016-Jul-17 14:32N 27°02' W 079°43'2417.3
2016-Jul-17 13:09N 26°38' W 079°45'1017.3
2016-Jul-17 12:33N 26°28' W 079°46'1717.4
2016-Jul-17 11:33N 26°10' W 079°47'5 8.9
2016-Jul-17 11:00N 26°12' W 079°42'   070 / 161017.910.8 1.527.2

Dump ship's entire track history